sensor_id;sensor_type;location;lat;lon;timestamp;pressure;altitude;pressure_sealevel;temperature;humidity
41312;BME280;27061;41.648;24.568;2022-08-19T00:00:10;86047.94;;;21.71;44.76
41312;BME280;27061;41.648;24.568;2022-08-19T00:02:37;86054.16;;;21.74;44.78
41312;BME280;27061;41.648;24.568;2022-08-19T00:05:19;86029.19;;;21.51;44.87
41312;BME280;27061;41.648;24.568;2022-08-19T00:07:49;86046.69;;;21.68;44.82
41312;BME280;27061;41.648;24.568;2022-08-19T00:10:18;86048.13;;;21.67;44.64
41312;BME280;27061;41.648;24.568;2022-08-19T00:12:46;86033.47;;;21.50;45.25
41312;BME280;27061;41.648;24.568;2022-08-19T00:15:17;86044.53;;;21.54;45.03
41312;BME280;27061;41.648;24.568;2022-08-19T00:17:45;86034.16;;;21.50;45.35
41312;BME280;27061;41.648;24.568;2022-08-19T00:20:17;86054.25;;;21.57;45.11
41312;BME280;27061;41.648;24.568;2022-08-19T00:22:45;86030.75;;;21.48;45.11
41312;BME280;27061;41.648;24.568;2022-08-19T00:25:15;86047.44;;;21.52;45.42
41312;BME280;27061;41.648;24.568;2022-08-19T00:27:43;86037.94;;;21.45;45.36
41312;BME280;27061;41.648;24.568;2022-08-19T00:30:12;86049.69;;;21.49;45.68
41312;BME280;27061;41.648;24.568;2022-08-19T00:32:40;86016.09;;;21.31;45.49
41312;BME280;27061;41.648;24.568;2022-08-19T00:35:08;86028.44;;;21.38;45.61
41312;BME280;27061;41.648;24.568;2022-08-19T00:37:38;86037.25;;;21.44;45.68
41312;BME280;27061;41.648;24.568;2022-08-19T00:40:11;86035.22;;;21.43;46.11
41312;BME280;27061;41.648;24.568;2022-08-19T00:42:41;86021.84;;;21.29;45.77
41312;BME280;27061;41.648;24.568;2022-08-19T00:45:19;86006.94;;;21.15;46.03
41312;BME280;27061;41.648;24.568;2022-08-19T00:47:47;86032.69;;;21.37;45.97
41312;BME280;27061;41.648;24.568;2022-08-19T00:50:18;86010.25;;;21.20;45.91
41312;BME280;27061;41.648;24.568;2022-08-19T00:52:49;86030.06;;;21.33;45.97
41312;BME280;27061;41.648;24.568;2022-08-19T00:55:22;86028.78;;;21.30;46.12
41312;BME280;27061;41.648;24.568;2022-08-19T00:57:55;86016.75;;;21.16;46.16
41312;BME280;27061;41.648;24.568;2022-08-19T01:00:31;86023.84;;;21.30;46.10
41312;BME280;27061;41.648;24.568;2022-08-19T01:03:06;86016.38;;;21.25;46.50
41312;BME280;27061;41.648;24.568;2022-08-19T01:05:34;85998.97;;;21.05;46.69
41312;BME280;27061;41.648;24.568;2022-08-19T01:08:04;86018.69;;;21.20;46.78
41312;BME280;27061;41.648;24.568;2022-08-19T01:10:45;86015.69;;;21.24;46.40
41312;BME280;27061;41.648;24.568;2022-08-19T01:13:16;86003.16;;;21.06;46.58
41312;BME280;27061;41.648;24.568;2022-08-19T01:15:49;85970.41;;;20.84;46.87
41312;BME280;27061;41.648;24.568;2022-08-19T01:18:20;86000.22;;;21.08;46.52
41312;BME280;27061;41.648;24.568;2022-08-19T01:20:48;85994.72;;;21.06;46.55
41312;BME280;27061;41.648;24.568;2022-08-19T01:23:16;85991.97;;;21.04;46.66
41312;BME280;27061;41.648;24.568;2022-08-19T01:25:49;85990.53;;;21.05;46.58
41312;BME280;27061;41.648;24.568;2022-08-19T01:28:24;85985.59;;;21.06;46.95
41312;BME280;27061;41.648;24.568;2022-08-19T01:31:20;85977.13;;;20.91;46.94
41312;BME280;27061;41.648;24.568;2022-08-19T01:33:55;85965.06;;;20.78;46.94
41312;BME280;27061;41.648;24.568;2022-08-19T01:36:37;85991.47;;;20.85;47.17
41312;BME280;27061;41.648;24.568;2022-08-19T01:39:10;85996.03;;;20.93;47.00
41312;BME280;27061;41.648;24.568;2022-08-19T01:41:39;85937.09;;;20.44;47.01
41312;BME280;27061;41.648;24.568;2022-08-19T01:44:08;85958.34;;;20.56;47.06
41312;BME280;27061;41.648;24.568;2022-08-19T01:46:47;85999.34;;;20.82;47.20
41312;BME280;27061;41.648;24.568;2022-08-19T01:49:18;85967.47;;;20.57;47.21
41312;BME280;27061;41.648;24.568;2022-08-19T01:51:48;86005.13;;;20.78;47.35
41312;BME280;27061;41.648;24.568;2022-08-19T01:54:18;86001.56;;;20.80;47.39
41312;BME280;27061;41.648;24.568;2022-08-19T01:57:01;86002.03;;;20.70;47.88
41312;BME280;27061;41.648;24.568;2022-08-19T01:59:33;85999.28;;;20.68;48.07
41312;BME280;27061;41.648;24.568;2022-08-19T02:02:01;85981.97;;;20.46;48.06
41312;BME280;27061;41.648;24.568;2022-08-19T02:04:29;85965.91;;;20.28;48.39
41312;BME280;27061;41.648;24.568;2022-08-19T02:06:58;86002.19;;;20.51;48.58
41312;BME280;27061;41.648;24.568;2022-08-19T02:09:25;85978.53;;;20.29;48.60
41312;BME280;27061;41.648;24.568;2022-08-19T02:11:53;86000.97;;;20.46;48.78
41312;BME280;27061;41.648;24.568;2022-08-19T02:14:21;86014.28;;;20.48;48.71
41312;BME280;27061;41.648;24.568;2022-08-19T02:16:49;86025.72;;;20.43;48.91
41312;BME280;27061;41.648;24.568;2022-08-19T02:19:17;86017.63;;;20.35;49.61
41312;BME280;27061;41.648;24.568;2022-08-19T02:21:45;85998.50;;;20.06;49.86
41312;BME280;27061;41.648;24.568;2022-08-19T02:24:13;86008.88;;;20.10;50.21
41312;BME280;27061;41.648;24.568;2022-08-19T02:26:41;86029.72;;;20.15;50.31
41312;BME280;27061;41.648;24.568;2022-08-19T02:29:09;85975.56;;;19.68;50.83
41312;BME280;27061;41.648;24.568;2022-08-19T02:31:37;86020.81;;;19.94;50.94
41312;BME280;27061;41.648;24.568;2022-08-19T02:34:05;86014.63;;;19.74;51.50
41312;BME280;27061;41.648;24.568;2022-08-19T02:36:33;86020.66;;;19.81;51.16
41312;BME280;27061;41.648;24.568;2022-08-19T02:39:00;86022.69;;;19.83;50.96
41312;BME280;27061;41.648;24.568;2022-08-19T02:41:31;86022.53;;;19.87;50.97
41312;BME280;27061;41.648;24.568;2022-08-19T02:44:01;86018.44;;;19.84;51.15
41312;BME280;27061;41.648;24.568;2022-08-19T02:46:51;86022.81;;;19.81;50.94
41312;BME280;27061;41.648;24.568;2022-08-19T02:49:19;86025.09;;;19.76;51.08
41312;BME280;27061;41.648;24.568;2022-08-19T02:51:47;86024.25;;;19.80;51.28
41312;BME280;27061;41.648;24.568;2022-08-19T02:54:15;86012.00;;;19.70;51.34
41312;BME280;27061;41.648;24.568;2022-08-19T02:56:44;86016.66;;;19.76;51.12
41312;BME280;27061;41.648;24.568;2022-08-19T02:59:14;86016.06;;;19.73;51.31
41312;BME280;27061;41.648;24.568;2022-08-19T03:01:42;85995.13;;;19.54;51.18
41312;BME280;27061;41.648;24.568;2022-08-19T03:04:13;86021.59;;;19.76;51.44
41312;BME280;27061;41.648;24.568;2022-08-19T03:06:44;86014.38;;;19.81;51.43
41312;BME280;27061;41.648;24.568;2022-08-19T03:09:14;86035.63;;;19.76;51.31
41312;BME280;27061;41.648;24.568;2022-08-19T03:11:42;86027.13;;;19.78;51.71
41312;BME280;27061;41.648;24.568;2022-08-19T03:14:11;86011.13;;;19.57;51.77
41312;BME280;27061;41.648;24.568;2022-08-19T03:16:58;86028.84;;;19.70;51.80
41312;BME280;27061;41.648;24.568;2022-08-19T03:19:25;86002.09;;;19.38;52.55
41312;BME280;27061;41.648;24.568;2022-08-19T03:21:53;85989.66;;;19.33;52.25
41312;BME280;27061;41.648;24.568;2022-08-19T03:24:21;86010.31;;;19.42;52.76
41312;BME280;27061;41.648;24.568;2022-08-19T03:26:52;86009.03;;;19.39;52.58
41312;BME280;27061;41.648;24.568;2022-08-19T03:29:27;86031.25;;;19.45;52.66
41312;BME280;27061;41.648;24.568;2022-08-19T03:32:01;86016.63;;;19.26;53.25
41312;BME280;27061;41.648;24.568;2022-08-19T03:34:33;85989.03;;;19.14;53.19
41312;BME280;27061;41.648;24.568;2022-08-19T03:37:06;86009.56;;;19.27;53.37
41312;BME280;27061;41.648;24.568;2022-08-19T03:39:36;86025.38;;;19.34;53.23
41312;BME280;27061;41.648;24.568;2022-08-19T03:42:06;86030.72;;;19.41;53.13
41312;BME280;27061;41.648;24.568;2022-08-19T03:44:57;86002.72;;;19.22;53.09
41312;BME280;27061;41.648;24.568;2022-08-19T03:47:26;86017.13;;;19.30;52.98
41312;BME280;27061;41.648;24.568;2022-08-19T03:49:56;86034.31;;;19.39;53.50
41312;BME280;27061;41.648;24.568;2022-08-19T03:52:25;86011.00;;;19.26;53.48
41312;BME280;27061;41.648;24.568;2022-08-19T03:54:54;86046.63;;;19.48;53.47
41312;BME280;27061;41.648;24.568;2022-08-19T03:57:23;85986.38;;;19.10;53.65
41312;BME280;27061;41.648;24.568;2022-08-19T03:59:59;86029.47;;;19.37;54.58
41312;BME280;27061;41.648;24.568;2022-08-19T04:02:41;86004.78;;;19.23;54.75
41312;BME280;27061;41.648;24.568;2022-08-19T04:05:28;86012.09;;;19.33;54.93
41312;BME280;27061;41.648;24.568;2022-08-19T04:07:57;85995.94;;;19.17;55.29
41312;BME280;27061;41.648;24.568;2022-08-19T04:10:27;86022.16;;;19.45;55.98
41312;BME280;27061;41.648;24.568;2022-08-19T04:12:56;86008.88;;;19.43;55.39
41312;BME280;27061;41.648;24.568;2022-08-19T04:15:25;86042.97;;;19.68;55.18
41312;BME280;27061;41.648;24.568;2022-08-19T04:17:54;86027.13;;;19.61;55.66
41312;BME280;27061;41.648;24.568;2022-08-19T04:20:23;86012.97;;;19.46;55.96
41312;BME280;27061;41.648;24.568;2022-08-19T04:22:51;86042.97;;;19.68;56.39
41312;BME280;27061;41.648;24.568;2022-08-19T04:25:20;86044.41;;;19.67;56.29
41312;BME280;27061;41.648;24.568;2022-08-19T04:27:49;86019.94;;;19.47;56.75
41312;BME280;27061;41.648;24.568;2022-08-19T04:30:17;85973.16;;;19.25;56.44
41312;BME280;27061;41.648;24.568;2022-08-19T04:32:47;86038.19;;;19.82;54.79
41312;BME280;27061;41.648;24.568;2022-08-19T04:35:16;86030.44;;;19.82;56.13
41312;BME280;27061;41.648;24.568;2022-08-19T04:37:49;86040.66;;;19.90;57.30
41312;BME280;27061;41.648;24.568;2022-08-19T04:40:18;86000.41;;;19.62;55.72
41312;BME280;27061;41.648;24.568;2022-08-19T04:43:05;86045.19;;;19.99;54.86
41312;BME280;27061;41.648;24.568;2022-08-19T04:45:33;86033.41;;;19.95;55.08
41312;BME280;27061;41.648;24.568;2022-08-19T04:48:11;85957.34;;;19.51;56.13
41312;BME280;27061;41.648;24.568;2022-08-19T04:50:55;86046.34;;;20.21;54.84
41312;BME280;27061;41.648;24.568;2022-08-19T04:53:31;86038.59;;;20.22;54.83
41312;BME280;27061;41.648;24.568;2022-08-19T04:56:07;86015.84;;;20.28;54.51
41312;BME280;27061;41.648;24.568;2022-08-19T04:58:37;86023.00;;;20.25;54.34
41312;BME280;27061;41.648;24.568;2022-08-19T05:01:05;86023.16;;;20.37;54.32
41312;BME280;27061;41.648;24.568;2022-08-19T05:03:33;86047.66;;;20.56;52.75
41312;BME280;27061;41.648;24.568;2022-08-19T05:06:07;86026.63;;;20.55;53.17
41312;BME280;27061;41.648;24.568;2022-08-19T05:08:35;86022.94;;;20.58;53.38
41312;BME280;27061;41.648;24.568;2022-08-19T05:11:17;86045.41;;;20.75;54.08
41312;BME280;27061;41.648;24.568;2022-08-19T05:13:47;86022.69;;;20.79;52.80
41312;BME280;27061;41.648;24.568;2022-08-19T05:16:19;85991.41;;;20.56;53.84
41312;BME280;27061;41.648;24.568;2022-08-19T05:18:47;86045.03;;;20.98;55.16
41312;BME280;27061;41.648;24.568;2022-08-19T05:21:36;86041.66;;;21.10;54.86
41312;BME280;27061;41.648;24.568;2022-08-19T05:24:24;86046.25;;;21.17;54.35
41312;BME280;27061;41.648;24.568;2022-08-19T05:26:55;86048.72;;;21.26;52.65
41312;BME280;27061;41.648;24.568;2022-08-19T05:29:28;86049.88;;;21.45;51.81
41312;BME280;27061;41.648;24.568;2022-08-19T05:32:06;86045.88;;;21.40;54.60
41312;BME280;27061;41.648;24.568;2022-08-19T05:34:38;86014.25;;;21.25;51.88
41312;BME280;27061;41.648;24.568;2022-08-19T05:37:08;86045.91;;;21.55;53.56
41312;BME280;27061;41.648;24.568;2022-08-19T05:39:37;86046.19;;;21.64;51.66
41312;BME280;27061;41.648;24.568;2022-08-19T05:42:09;86034.72;;;21.68;52.56
41312;BME280;27061;41.648;24.568;2022-08-19T05:44:42;86043.38;;;21.78;52.40
41312;BME280;27061;41.648;24.568;2022-08-19T05:47:12;86041.41;;;21.89;51.96
41312;BME280;27061;41.648;24.568;2022-08-19T05:49:42;86043.81;;;21.98;52.04
41312;BME280;27061;41.648;24.568;2022-08-19T05:52:13;86023.13;;;21.88;51.87
41312;BME280;27061;41.648;24.568;2022-08-19T05:54:46;85945.09;;;21.43;52.43
41312;BME280;27061;41.648;24.568;2022-08-19T05:57:18;86044.56;;;22.25;50.89
41312;BME280;27061;41.648;24.568;2022-08-19T05:59:47;86023.69;;;22.20;48.93
41312;BME280;27061;41.648;24.568;2022-08-19T06:02:26;86026.94;;;22.25;50.04
41312;BME280;27061;41.648;24.568;2022-08-19T06:04:54;86025.19;;;22.32;48.66
41312;BME280;27061;41.648;24.568;2022-08-19T06:07:22;86042.00;;;22.61;49.46
41312;BME280;27061;41.648;24.568;2022-08-19T06:09:51;86039.09;;;22.63;48.82
41312;BME280;27061;41.648;24.568;2022-08-19T06:12:28;86045.50;;;22.77;49.58
41312;BME280;27061;41.648;24.568;2022-08-19T06:14:59;86036.91;;;22.79;49.46
41312;BME280;27061;41.648;24.568;2022-08-19T06:17:28;86020.25;;;22.73;48.19
41312;BME280;27061;41.648;24.568;2022-08-19T06:19:58;86055.94;;;23.06;47.67
41312;BME280;27061;41.648;24.568;2022-08-19T06:22:26;86037.94;;;22.86;50.03
41312;BME280;27061;41.648;24.568;2022-08-19T06:24:55;86055.06;;;23.09;50.03
41312;BME280;27061;41.648;24.568;2022-08-19T06:27:23;86031.53;;;23.00;47.89
41312;BME280;27061;41.648;24.568;2022-08-19T06:29:52;86045.44;;;23.04;47.13
41312;BME280;27061;41.648;24.568;2022-08-19T06:32:22;86066.38;;;23.22;49.05
41312;BME280;27061;41.648;24.568;2022-08-19T06:34:50;86049.56;;;23.32;47.02
41312;BME280;27061;41.648;24.568;2022-08-19T06:37:17;86058.03;;;23.32;48.88
41312;BME280;27061;41.648;24.568;2022-08-19T06:39:45;86045.03;;;23.38;46.62
41312;BME280;27061;41.648;24.568;2022-08-19T06:42:14;86017.91;;;23.17;48.49
41312;BME280;27061;41.648;24.568;2022-08-19T06:44:49;86068.25;;;23.65;48.58
41312;BME280;27061;41.648;24.568;2022-08-19T06:47:20;86057.75;;;23.64;48.14
41312;BME280;27061;41.648;24.568;2022-08-19T06:49:56;86059.91;;;23.76;47.24
41312;BME280;27061;41.648;24.568;2022-08-19T06:52:33;86027.78;;;23.56;46.97
41312;BME280;27061;41.648;24.568;2022-08-19T06:55:04;86061.94;;;23.90;47.70
41312;BME280;27061;41.648;24.568;2022-08-19T06:57:33;85982.34;;;23.35;47.09
41312;BME280;27061;41.648;24.568;2022-08-19T07:00:03;86054.34;;;23.99;44.41
41312;BME280;27061;41.648;24.568;2022-08-19T07:02:36;86065.09;;;24.09;45.80
41312;BME280;27061;41.648;24.568;2022-08-19T07:05:07;86037.03;;;24.05;46.02
41312;BME280;27061;41.648;24.568;2022-08-19T07:07:37;86052.88;;;24.26;44.48
41312;BME280;27061;41.648;24.568;2022-08-19T07:10:09;86050.38;;;24.32;45.40
41312;BME280;27061;41.648;24.568;2022-08-19T07:12:38;85980.63;;;23.91;45.56
41312;BME280;27061;41.648;24.568;2022-08-19T07:15:09;86041.75;;;24.47;45.50
41312;BME280;27061;41.648;24.568;2022-08-19T07:17:38;86034.38;;;24.39;47.22
41312;BME280;27061;41.648;24.568;2022-08-19T07:20:08;86059.00;;;24.66;45.45
41312;BME280;27061;41.648;24.568;2022-08-19T07:22:40;86052.41;;;24.70;45.69
41312;BME280;27061;41.648;24.568;2022-08-19T07:25:09;86059.25;;;24.86;44.32
41312;BME280;27061;41.648;24.568;2022-08-19T07:27:36;86029.75;;;24.70;44.82
41312;BME280;27061;41.648;24.568;2022-08-19T07:30:07;86058.56;;;24.98;45.41
41312;BME280;27061;41.648;24.568;2022-08-19T07:32:39;86014.13;;;24.71;46.62
41312;BME280;27061;41.648;24.568;2022-08-19T07:35:07;86063.91;;;25.14;43.12
41312;BME280;27061;41.648;24.568;2022-08-19T07:37:36;86056.66;;;25.17;45.96
41312;BME280;27061;41.648;24.568;2022-08-19T07:40:07;86054.13;;;25.24;44.82
41312;BME280;27061;41.648;24.568;2022-08-19T07:42:35;86062.44;;;25.39;43.93
41312;BME280;27061;41.648;24.568;2022-08-19T07:45:04;86051.59;;;25.31;43.82
41312;BME280;27061;41.648;24.568;2022-08-19T07:47:33;86070.44;;;25.47;41.20
41312;BME280;27061;41.648;24.568;2022-08-19T07:50:18;86072.09;;;25.54;45.01
41312;BME280;27061;41.648;24.568;2022-08-19T07:52:48;86039.59;;;25.30;43.50
41312;BME280;27061;41.648;24.568;2022-08-19T07:55:21;86061.84;;;25.60;44.97
41312;BME280;27061;41.648;24.568;2022-08-19T07:58:13;86060.41;;;25.61;44.37
41312;BME280;27061;41.648;24.568;2022-08-19T08:00:50;86076.56;;;25.85;43.98
41312;BME280;27061;41.648;24.568;2022-08-19T08:03:21;86063.84;;;25.74;41.38
41312;BME280;27061;41.648;24.568;2022-08-19T08:06:09;86072.78;;;25.89;40.40
41312;BME280;27061;41.648;24.568;2022-08-19T08:08:56;86048.03;;;25.77;42.65
41312;BME280;27061;41.648;24.568;2022-08-19T08:14:28;86076.94;;;26.13;43.19
41312;BME280;27061;41.648;24.568;2022-08-19T08:17:01;86074.09;;;26.13;42.25
41312;BME280;27061;41.648;24.568;2022-08-19T08:19:37;86073.72;;;26.30;42.64
41312;BME280;27061;41.648;24.568;2022-08-19T08:22:05;86052.78;;;26.25;41.34
41312;BME280;27061;41.648;24.568;2022-08-19T08:24:33;86056.31;;;26.36;42.18
41312;BME280;27061;41.648;24.568;2022-08-19T08:27:06;86071.47;;;26.54;40.50
41312;BME280;27061;41.648;24.568;2022-08-19T08:29:37;86081.75;;;26.70;42.40
41312;BME280;27061;41.648;24.568;2022-08-19T08:32:08;86051.06;;;26.62;40.17
41312;BME280;27061;41.648;24.568;2022-08-19T08:34:43;86077.19;;;26.86;39.16
41312;BME280;27061;41.648;24.568;2022-08-19T08:37:13;86060.25;;;26.73;41.27
41312;BME280;27061;41.648;24.568;2022-08-19T08:39:43;86056.06;;;26.83;41.49
41312;BME280;27061;41.648;24.568;2022-08-19T08:42:27;86078.00;;;27.06;39.68
41312;BME280;27061;41.648;24.568;2022-08-19T08:45:02;86058.81;;;26.95;39.76
41312;BME280;27061;41.648;24.568;2022-08-19T08:47:35;86048.91;;;27.05;40.25
41312;BME280;27061;41.648;24.568;2022-08-19T08:50:31;86073.38;;;27.32;39.10
41312;BME280;27061;41.648;24.568;2022-08-19T08:53:03;86062.41;;;27.26;40.81
41312;BME280;27061;41.648;24.568;2022-08-19T08:55:34;86079.03;;;27.53;40.99
41312;BME280;27061;41.648;24.568;2022-08-19T08:58:11;86063.97;;;27.65;41.27
41312;BME280;27061;41.648;24.568;2022-08-19T09:00:46;86025.19;;;27.41;40.68
41312;BME280;27061;41.648;24.568;2022-08-19T09:03:21;86062.56;;;27.86;38.15
41312;BME280;27061;41.648;24.568;2022-08-19T09:17:30;86034.31;;;27.73;38.55
41312;BME280;27061;41.648;24.568;2022-08-19T09:20:14;86032.38;;;27.80;37.94
41312;BME280;27061;41.648;24.568;2022-08-19T09:22:43;86059.19;;;28.13;40.34
41312;BME280;27061;41.648;24.568;2022-08-19T09:25:17;86047.72;;;28.04;38.88
41312;BME280;27061;41.648;24.568;2022-08-19T09:27:54;86038.38;;;28.06;35.92
41312;BME280;27061;41.648;24.568;2022-08-19T09:30:33;86063.91;;;28.27;35.89
41312;BME280;27061;41.648;24.568;2022-08-19T09:33:02;86046.31;;;28.14;36.66
41312;BME280;27061;41.648;24.568;2022-08-19T09:35:30;86055.69;;;28.13;36.40
41312;BME280;27061;41.648;24.568;2022-08-19T09:38:16;86059.78;;;28.05;35.72
41312;BME280;27061;41.648;24.568;2022-08-19T09:40:43;86057.72;;;28.14;35.73
41312;BME280;27061;41.648;24.568;2022-08-19T09:43:12;86047.69;;;28.15;36.69
41312;BME280;27061;41.648;24.568;2022-08-19T09:45:39;86047.25;;;28.21;39.62
41312;BME280;27061;41.648;24.568;2022-08-19T09:48:07;86048.00;;;28.30;35.19
41312;BME280;27061;41.648;24.568;2022-08-19T09:50:37;86053.13;;;28.38;37.56
41312;BME280;27061;41.648;24.568;2022-08-19T09:53:18;86052.69;;;28.45;34.48
41312;BME280;27061;41.648;24.568;2022-08-19T09:55:55;86032.16;;;28.33;34.84
41312;BME280;27061;41.648;24.568;2022-08-19T09:58:23;86054.19;;;28.44;35.65
41312;BME280;27061;41.648;24.568;2022-08-19T10:00:55;86045.09;;;28.41;35.58
41312;BME280;27061;41.648;24.568;2022-08-19T10:03:25;86053.75;;;28.50;33.80
41312;BME280;27061;41.648;24.568;2022-08-19T10:06:01;86032.47;;;28.49;34.05
41312;BME280;27061;41.648;24.568;2022-08-19T10:08:32;86035.16;;;28.51;35.71
41312;BME280;27061;41.648;24.568;2022-08-19T10:11:02;86047.38;;;28.68;35.71
41312;BME280;27061;41.648;24.568;2022-08-19T10:13:50;86045.31;;;28.77;36.32
41312;BME280;27061;41.648;24.568;2022-08-19T10:16:20;86047.25;;;28.90;36.37
41312;BME280;27061;41.648;24.568;2022-08-19T10:18:56;86043.19;;;29.06;36.09
41312;BME280;27061;41.648;24.568;2022-08-19T10:21:28;86050.28;;;29.16;36.82
41312;BME280;27061;41.648;24.568;2022-08-19T10:24:02;86043.56;;;29.10;33.98
41312;BME280;27061;41.648;24.568;2022-08-19T10:26:34;86035.44;;;29.24;36.03
41312;BME280;27061;41.648;24.568;2022-08-19T10:29:04;86029.81;;;29.32;34.50
41312;BME280;27061;41.648;24.568;2022-08-19T10:31:35;86051.38;;;29.48;34.40
41312;BME280;27061;41.648;24.568;2022-08-19T10:34:24;86054.13;;;29.59;34.34
41312;BME280;27061;41.648;24.568;2022-08-19T10:36:55;86048.28;;;29.61;31.82
41312;BME280;27061;41.648;24.568;2022-08-19T10:39:29;86006.13;;;29.53;32.53
41312;BME280;27061;41.648;24.568;2022-08-19T10:41:59;86019.91;;;29.59;34.42
41312;BME280;27061;41.648;24.568;2022-08-19T10:44:26;86021.28;;;29.69;32.42
41312;BME280;27061;41.648;24.568;2022-08-19T10:46:59;86040.84;;;29.83;32.44
41312;BME280;27061;41.648;24.568;2022-08-19T10:49:27;86004.78;;;29.52;31.90
41312;BME280;27061;41.648;24.568;2022-08-19T10:51:56;85985.94;;;29.46;30.98
41312;BME280;27061;41.648;24.568;2022-08-19T10:54:53;85990.41;;;29.63;34.76
41312;BME280;27061;41.648;24.568;2022-08-19T10:57:40;86029.53;;;30.01;32.36
41312;BME280;27061;41.648;24.568;2022-08-19T11:00:28;86027.22;;;30.12;33.35
41312;BME280;27061;41.648;24.568;2022-08-19T11:02:58;86027.41;;;30.18;32.67
41312;BME280;27061;41.648;24.568;2022-08-19T11:05:31;86028.63;;;30.30;32.93
41312;BME280;27061;41.648;24.568;2022-08-19T11:08:17;86005.41;;;30.17;32.80
41312;BME280;27061;41.648;24.568;2022-08-19T11:10:51;86029.00;;;30.43;30.48
41312;BME280;27061;41.648;24.568;2022-08-19T11:13:34;86006.13;;;30.35;33.25
41312;BME280;27061;41.648;24.568;2022-08-19T11:16:06;86027.38;;;30.64;32.11
41312;BME280;27061;41.648;24.568;2022-08-19T11:18:39;86012.09;;;30.59;30.45
41312;BME280;27061;41.648;24.568;2022-08-19T11:21:16;86017.50;;;30.71;31.83
41312;BME280;27061;41.648;24.568;2022-08-19T11:23:48;85985.19;;;30.55;32.86
41312;BME280;27061;41.648;24.568;2022-08-19T11:26:19;86015.00;;;30.93;32.59
41312;BME280;27061;41.648;24.568;2022-08-19T11:28:48;86001.38;;;30.93;32.14
41312;BME280;27061;41.648;24.568;2022-08-19T11:31:19;85993.78;;;30.99;31.81
41312;BME280;27061;41.648;24.568;2022-08-19T11:33:50;86011.47;;;31.18;30.47
41312;BME280;27061;41.648;24.568;2022-08-19T11:36:21;85958.47;;;30.85;29.49
41312;BME280;27061;41.648;24.568;2022-08-19T11:38:50;86007.63;;;31.13;29.46
41312;BME280;27061;41.648;24.568;2022-08-19T11:41:20;86014.69;;;31.23;31.00
41312;BME280;27061;41.648;24.568;2022-08-19T11:43:48;86009.94;;;31.28;30.44
41312;BME280;27061;41.648;24.568;2022-08-19T11:46:18;85987.41;;;31.15;31.67
41312;BME280;27061;41.648;24.568;2022-08-19T11:48:46;86008.25;;;31.40;30.29
41312;BME280;27061;41.648;24.568;2022-08-19T11:51:16;86010.63;;;31.46;31.27
41312;BME280;27061;41.648;24.568;2022-08-19T11:53:47;86001.84;;;31.48;30.69
41312;BME280;27061;41.648;24.568;2022-08-19T11:56:14;85980.66;;;31.45;29.78
41312;BME280;27061;41.648;24.568;2022-08-19T11:58:42;85983.66;;;31.51;30.12
41312;BME280;27061;41.648;24.568;2022-08-19T12:01:12;85978.63;;;31.52;27.67
41312;BME280;27061;41.648;24.568;2022-08-19T12:03:45;86002.16;;;31.78;27.52
41312;BME280;27061;41.648;24.568;2022-08-19T12:06:17;85987.53;;;31.65;27.92
41312;BME280;27061;41.648;24.568;2022-08-19T12:08:45;85995.22;;;31.84;29.88
41312;BME280;27061;41.648;24.568;2022-08-19T12:11:14;85984.81;;;31.72;28.52
41312;BME280;27061;41.648;24.568;2022-08-19T12:13:44;85976.03;;;31.82;26.67
41312;BME280;27061;41.648;24.568;2022-08-19T12:16:19;85992.16;;;31.94;28.32
41312;BME280;27061;41.648;24.568;2022-08-19T12:18:47;85987.25;;;32.01;28.80
41312;BME280;27061;41.648;24.568;2022-08-19T12:21:18;85992.13;;;32.03;27.82
41312;BME280;27061;41.648;24.568;2022-08-19T12:23:49;85994.31;;;32.03;24.18
41312;BME280;27061;41.648;24.568;2022-08-19T12:26:22;85962.09;;;31.78;24.36
41312;BME280;27061;41.648;24.568;2022-08-19T12:28:50;85946.47;;;31.51;22.94
41312;BME280;27061;41.648;24.568;2022-08-19T12:31:19;85989.53;;;31.75;25.15
41312;BME280;27061;41.648;24.568;2022-08-19T12:33:47;85988.00;;;31.85;25.77
41312;BME280;27061;41.648;24.568;2022-08-19T12:36:16;85977.94;;;31.69;24.78
41312;BME280;27061;41.648;24.568;2022-08-19T12:38:45;85973.22;;;31.74;26.70
41312;BME280;27061;41.648;24.568;2022-08-19T12:41:15;85963.97;;;31.64;27.04
41312;BME280;27061;41.648;24.568;2022-08-19T12:43:47;85969.50;;;31.75;26.14
41312;BME280;27061;41.648;24.568;2022-08-19T12:46:18;85985.28;;;31.91;26.92
41312;BME280;27061;41.648;24.568;2022-08-19T12:48:51;85966.47;;;31.69;27.73
41312;BME280;27061;41.648;24.568;2022-08-19T12:51:22;85955.38;;;31.73;27.58
41312;BME280;27061;41.648;24.568;2022-08-19T12:53:50;85990.13;;;32.01;26.68
41312;BME280;27061;41.648;24.568;2022-08-19T12:56:18;85987.53;;;32.15;26.79
41312;BME280;27061;41.648;24.568;2022-08-19T12:58:49;85995.47;;;32.14;26.06
41312;BME280;27061;41.648;24.568;2022-08-19T13:01:20;85968.72;;;32.00;26.33
41312;BME280;27061;41.648;24.568;2022-08-19T13:03:50;85993.41;;;32.30;26.42
41312;BME280;27061;41.648;24.568;2022-08-19T13:06:21;85994.56;;;32.33;26.18
41312;BME280;27061;41.648;24.568;2022-08-19T13:08:50;85987.25;;;32.43;26.19
41312;BME280;27061;41.648;24.568;2022-08-19T13:11:25;85975.72;;;32.27;26.16
41312;BME280;27061;41.648;24.568;2022-08-19T13:13:53;85992.47;;;32.49;25.50
41312;BME280;27061;41.648;24.568;2022-08-19T13:16:22;85972.72;;;32.21;24.38
41312;BME280;27061;41.648;24.568;2022-08-19T13:18:50;85994.03;;;32.39;25.54
41312;BME280;27061;41.648;24.568;2022-08-19T13:21:21;85993.31;;;32.47;26.04
41312;BME280;27061;41.648;24.568;2022-08-19T13:23:51;85994.84;;;32.46;25.67
41312;BME280;27061;41.648;24.568;2022-08-19T13:26:20;85993.31;;;32.47;25.38
41312;BME280;27061;41.648;24.568;2022-08-19T13:28:49;85968.25;;;32.39;25.57